sensor_id;sensor_type;location;lat;lon;timestamp;P1;durP1;ratioP1;P2;durP2;ratioP2
4835;SDS011;66719;51.226;6.902;2024-01-10T00:02:20;22.97;;;8.73;;
4835;SDS011;66719;51.226;6.902;2024-01-10T00:04:46;17.93;;;7.07;;
4835;SDS011;66719;51.226;6.902;2024-01-10T00:07:13;20.30;;;7.37;;
4835;SDS011;66719;51.226;6.902;2024-01-10T00:09:39;19.00;;;8.23;;
4835;SDS011;66719;51.226;6.902;2024-01-10T00:12:06;20.80;;;7.77;;
4835;SDS011;66719;51.226;6.902;2024-01-10T00:14:33;18.40;;;7.30;;
4835;SDS011;66719;51.226;6.902;2024-01-10T00:16:59;18.33;;;7.70;;
4835;SDS011;66719;51.226;6.902;2024-01-10T00:19:26;16.73;;;7.60;;
4835;SDS011;66719;51.226;6.902;2024-01-10T00:21:52;20.50;;;8.33;;
4835;SDS011;66719;51.226;6.902;2024-01-10T00:24:19;19.90;;;7.77;;
4835;SDS011;66719;51.226;6.902;2024-01-10T00:26:45;19.43;;;8.03;;
4835;SDS011;66719;51.226;6.902;2024-01-10T00:29:12;22.47;;;8.87;;
4835;SDS011;66719;51.226;6.902;2024-01-10T00:31:39;17.43;;;7.40;;
4835;SDS011;66719;51.226;6.902;2024-01-10T00:34:06;16.00;;;7.13;;
4835;SDS011;66719;51.226;6.902;2024-01-10T00:36:33;20.77;;;8.13;;
4835;SDS011;66719;51.226;6.902;2024-01-10T00:38:59;29.13;;;7.43;;
4835;SDS011;66719;51.226;6.902;2024-01-10T00:41:26;18.10;;;7.10;;
4835;SDS011;66719;51.226;6.902;2024-01-10T00:43:52;22.30;;;7.70;;
4835;SDS011;66719;51.226;6.902;2024-01-10T00:46:19;17.40;;;7.77;;
4835;SDS011;66719;51.226;6.902;2024-01-10T00:48:45;22.03;;;7.77;;
4835;SDS011;66719;51.226;6.902;2024-01-10T00:51:12;17.70;;;8.30;;
4835;SDS011;66719;51.226;6.902;2024-01-10T00:53:39;18.43;;;8.03;;
4835;SDS011;66719;51.226;6.902;2024-01-10T00:56:05;20.07;;;7.50;;
4835;SDS011;66719;51.226;6.902;2024-01-10T00:58:33;20.17;;;7.67;;
4835;SDS011;66719;51.226;6.902;2024-01-10T01:01:00;20.63;;;8.50;;
4835;SDS011;66719;51.226;6.902;2024-01-10T01:03:26;18.10;;;7.47;;
4835;SDS011;66719;51.226;6.902;2024-01-10T01:05:53;18.07;;;8.60;;
4835;SDS011;66719;51.226;6.902;2024-01-10T01:08:19;17.00;;;6.90;;
4835;SDS011;66719;51.226;6.902;2024-01-10T01:10:46;19.37;;;8.63;;
4835;SDS011;66719;51.226;6.902;2024-01-10T01:13:13;18.13;;;7.47;;
4835;SDS011;66719;51.226;6.902;2024-01-10T01:15:39;17.83;;;7.90;;
4835;SDS011;66719;51.226;6.902;2024-01-10T01:18:06;17.70;;;7.70;;
4835;SDS011;66719;51.226;6.902;2024-01-10T01:20:32;21.00;;;8.40;;
4835;SDS011;66719;51.226;6.902;2024-01-10T01:22:59;17.53;;;8.07;;
4835;SDS011;66719;51.226;6.902;2024-01-10T01:25:26;20.63;;;8.20;;
4835;SDS011;66719;51.226;6.902;2024-01-10T01:27:52;19.10;;;7.33;;
4835;SDS011;66719;51.226;6.902;2024-01-10T01:30:19;19.60;;;7.93;;
4835;SDS011;66719;51.226;6.902;2024-01-10T01:32:48;22.97;;;9.07;;
4835;SDS011;66719;51.226;6.902;2024-01-10T01:35:14;17.53;;;7.67;;
4835;SDS011;66719;51.226;6.902;2024-01-10T01:37:48;18.57;;;8.23;;
4835;SDS011;66719;51.226;6.902;2024-01-10T01:40:15;15.97;;;7.10;;
4835;SDS011;66719;51.226;6.902;2024-01-10T01:42:43;20.83;;;7.20;;
4835;SDS011;66719;51.226;6.902;2024-01-10T01:45:11;17.50;;;7.40;;
4835;SDS011;66719;51.226;6.902;2024-01-10T01:47:38;19.33;;;8.20;;
4835;SDS011;66719;51.226;6.902;2024-01-10T01:50:05;18.60;;;7.60;;
4835;SDS011;66719;51.226;6.902;2024-01-10T01:52:33;17.10;;;7.30;;
4835;SDS011;66719;51.226;6.902;2024-01-10T01:55:01;17.50;;;7.50;;
4835;SDS011;66719;51.226;6.902;2024-01-10T01:57:28;16.53;;;7.30;;
4835;SDS011;66719;51.226;6.902;2024-01-10T01:59:55;18.40;;;7.53;;
4835;SDS011;66719;51.226;6.902;2024-01-10T02:02:22;18.40;;;7.70;;
4835;SDS011;66719;51.226;6.902;2024-01-10T02:04:50;18.27;;;7.33;;
4835;SDS011;66719;51.226;6.902;2024-01-10T02:07:17;19.90;;;7.60;;
4835;SDS011;66719;51.226;6.902;2024-01-10T02:09:43;19.33;;;7.70;;
4835;SDS011;66719;51.226;6.902;2024-01-10T02:12:10;19.43;;;7.70;;
4835;SDS011;66719;51.226;6.902;2024-01-10T02:14:36;17.30;;;7.63;;
4835;SDS011;66719;51.226;6.902;2024-01-10T02:17:03;20.00;;;7.60;;
4835;SDS011;66719;51.226;6.902;2024-01-10T02:19:30;17.87;;;7.90;;
4835;SDS011;66719;51.226;6.902;2024-01-10T02:21:58;18.93;;;7.60;;
4835;SDS011;66719;51.226;6.902;2024-01-10T02:24:25;22.20;;;8.40;;
4835;SDS011;66719;51.226;6.902;2024-01-10T02:26:51;16.87;;;7.27;;
4835;SDS011;66719;51.226;6.902;2024-01-10T02:29:18;18.70;;;7.70;;
4835;SDS011;66719;51.226;6.902;2024-01-10T02:31:44;19.67;;;8.23;;
4835;SDS011;66719;51.226;6.902;2024-01-10T02:34:11;17.77;;;6.83;;
4835;SDS011;66719;51.226;6.902;2024-01-10T02:36:38;17.07;;;7.27;;
4835;SDS011;66719;51.226;6.902;2024-01-10T02:39:04;18.73;;;7.70;;
4835;SDS011;66719;51.226;6.902;2024-01-10T02:41:30;17.00;;;7.50;;
4835;SDS011;66719;51.226;6.902;2024-01-10T02:43:57;19.73;;;7.50;;
4835;SDS011;66719;51.226;6.902;2024-01-10T02:46:25;19.03;;;7.60;;
4835;SDS011;66719;51.226;6.902;2024-01-10T02:48:54;16.77;;;6.90;;
4835;SDS011;66719;51.226;6.902;2024-01-10T02:51:21;16.13;;;7.10;;
4835;SDS011;66719;51.226;6.902;2024-01-10T02:53:48;18.97;;;7.73;;
4835;SDS011;66719;51.226;6.902;2024-01-10T02:56:14;18.10;;;7.67;;
4835;SDS011;66719;51.226;6.902;2024-01-10T02:58:41;15.73;;;6.90;;
4835;SDS011;66719;51.226;6.902;2024-01-10T03:01:07;19.40;;;7.90;;
4835;SDS011;66719;51.226;6.902;2024-01-10T03:03:35;17.60;;;7.47;;
4835;SDS011;66719;51.226;6.902;2024-01-10T03:06:02;23.50;;;8.30;;
4835;SDS011;66719;51.226;6.902;2024-01-10T03:08:28;19.03;;;7.67;;
4835;SDS011;66719;51.226;6.902;2024-01-10T03:10:55;27.43;;;8.00;;
4835;SDS011;66719;51.226;6.902;2024-01-10T03:13:21;16.80;;;7.77;;
4835;SDS011;66719;51.226;6.902;2024-01-10T03:15:48;18.50;;;7.87;;
4835;SDS011;66719;51.226;6.902;2024-01-10T03:18:15;19.80;;;7.70;;
4835;SDS011;66719;51.226;6.902;2024-01-10T03:20:41;21.70;;;8.47;;
4835;SDS011;66719;51.226;6.902;2024-01-10T03:23:08;20.03;;;7.70;;
4835;SDS011;66719;51.226;6.902;2024-01-10T03:25:34;19.03;;;7.90;;
4835;SDS011;66719;51.226;6.902;2024-01-10T03:28:01;17.20;;;7.03;;
4835;SDS011;66719;51.226;6.902;2024-01-10T03:30:29;19.13;;;7.80;;
4835;SDS011;66719;51.226;6.902;2024-01-10T03:32:55;18.33;;;7.90;;
4835;SDS011;66719;51.226;6.902;2024-01-10T03:35:22;18.77;;;8.03;;
4835;SDS011;66719;51.226;6.902;2024-01-10T03:37:48;17.03;;;7.60;;
4835;SDS011;66719;51.226;6.902;2024-01-10T03:40:15;19.33;;;7.60;;
4835;SDS011;66719;51.226;6.902;2024-01-10T03:42:41;23.50;;;8.20;;
4835;SDS011;66719;51.226;6.902;2024-01-10T03:45:08;18.80;;;8.13;;
4835;SDS011;66719;51.226;6.902;2024-01-10T03:47:35;18.63;;;8.27;;
4835;SDS011;66719;51.226;6.902;2024-01-10T03:50:01;19.97;;;8.60;;
4835;SDS011;66719;51.226;6.902;2024-01-10T03:52:28;18.80;;;8.30;;
4835;SDS011;66719;51.226;6.902;2024-01-10T03:54:55;19.97;;;8.27;;
4835;SDS011;66719;51.226;6.902;2024-01-10T03:57:21;18.47;;;7.80;;
4835;SDS011;66719;51.226;6.902;2024-01-10T03:59:48;16.77;;;7.43;;
4835;SDS011;66719;51.226;6.902;2024-01-10T04:02:14;18.40;;;8.10;;
4835;SDS011;66719;51.226;6.902;2024-01-10T04:04:41;18.80;;;8.07;;
4835;SDS011;66719;51.226;6.902;2024-01-10T04:07:07;22.07;;;9.10;;
4835;SDS011;66719;51.226;6.902;2024-01-10T04:09:34;18.27;;;8.27;;
4835;SDS011;66719;51.226;6.902;2024-01-10T04:12:01;17.40;;;7.40;;
4835;SDS011;66719;51.226;6.902;2024-01-10T04:14:27;18.50;;;7.47;;
4835;SDS011;66719;51.226;6.902;2024-01-10T04:16:54;18.77;;;6.93;;
4835;SDS011;66719;51.226;6.902;2024-01-10T04:19:21;21.20;;;9.27;;
4835;SDS011;66719;51.226;6.902;2024-01-10T04:21:47;18.43;;;8.73;;
4835;SDS011;66719;51.226;6.902;2024-01-10T04:24:14;20.83;;;9.20;;
4835;SDS011;66719;51.226;6.902;2024-01-10T04:26:40;23.27;;;9.33;;
4835;SDS011;66719;51.226;6.902;2024-01-10T04:29:07;19.77;;;8.03;;
4835;SDS011;66719;51.226;6.902;2024-01-10T04:31:34;21.10;;;9.20;;
4835;SDS011;66719;51.226;6.902;2024-01-10T04:34:02;20.20;;;8.70;;
4835;SDS011;66719;51.226;6.902;2024-01-10T04:36:28;19.43;;;8.50;;
4835;SDS011;66719;51.226;6.902;2024-01-10T04:38:55;20.23;;;8.50;;
4835;SDS011;66719;51.226;6.902;2024-01-10T04:41:21;19.80;;;8.40;;
4835;SDS011;66719;51.226;6.902;2024-01-10T04:43:48;21.10;;;9.70;;
4835;SDS011;66719;51.226;6.902;2024-01-10T04:46:15;22.30;;;9.43;;
4835;SDS011;66719;51.226;6.902;2024-01-10T04:48:41;20.53;;;8.97;;
4835;SDS011;66719;51.226;6.902;2024-01-10T04:51:08;22.40;;;8.40;;
4835;SDS011;66719;51.226;6.902;2024-01-10T04:53:35;24.60;;;9.63;;
4835;SDS011;66719;51.226;6.902;2024-01-10T04:56:01;21.57;;;8.47;;
4835;SDS011;66719;51.226;6.902;2024-01-10T04:58:28;21.17;;;8.73;;
4835;SDS011;66719;51.226;6.902;2024-01-10T05:00:55;22.10;;;9.43;;
4835;SDS011;66719;51.226;6.902;2024-01-10T05:03:22;23.33;;;9.50;;
4835;SDS011;66719;51.226;6.902;2024-01-10T05:05:48;25.33;;;9.63;;
4835;SDS011;66719;51.226;6.902;2024-01-10T05:08:15;24.67;;;9.03;;
4835;SDS011;66719;51.226;6.902;2024-01-10T05:10:42;22.70;;;9.70;;
4835;SDS011;66719;51.226;6.902;2024-01-10T05:13:08;20.80;;;9.20;;
4835;SDS011;66719;51.226;6.902;2024-01-10T05:15:35;24.60;;;9.10;;
4835;SDS011;66719;51.226;6.902;2024-01-10T05:18:01;24.83;;;9.60;;
4835;SDS011;66719;51.226;6.902;2024-01-10T05:20:29;19.67;;;8.80;;
4835;SDS011;66719;51.226;6.902;2024-01-10T05:22:55;21.43;;;8.30;;
4835;SDS011;66719;51.226;6.902;2024-01-10T05:25:25;28.40;;;9.37;;
4835;SDS011;66719;51.226;6.902;2024-01-10T05:27:51;21.23;;;8.50;;
4835;SDS011;66719;51.226;6.902;2024-01-10T05:30:18;21.40;;;8.73;;
4835;SDS011;66719;51.226;6.902;2024-01-10T05:32:45;22.20;;;9.00;;
4835;SDS011;66719;51.226;6.902;2024-01-10T05:35:12;24.70;;;9.37;;
4835;SDS011;66719;51.226;6.902;2024-01-10T05:37:38;20.30;;;8.57;;
4835;SDS011;66719;51.226;6.902;2024-01-10T05:40:05;22.60;;;9.03;;
4835;SDS011;66719;51.226;6.902;2024-01-10T05:42:32;24.23;;;9.23;;
4835;SDS011;66719;51.226;6.902;2024-01-10T05:45:00;23.40;;;9.13;;
4835;SDS011;66719;51.226;6.902;2024-01-10T05:47:28;21.93;;;9.57;;
4835;SDS011;66719;51.226;6.902;2024-01-10T05:49:55;23.63;;;10.20;;
4835;SDS011;66719;51.226;6.902;2024-01-10T05:52:21;19.40;;;9.10;;
4835;SDS011;66719;51.226;6.902;2024-01-10T05:54:51;23.93;;;9.43;;
4835;SDS011;66719;51.226;6.902;2024-01-10T05:57:17;25.00;;;9.90;;
4835;SDS011;66719;51.226;6.902;2024-01-10T05:59:44;24.70;;;9.40;;
4835;SDS011;66719;51.226;6.902;2024-01-10T06:02:10;23.00;;;9.47;;
4835;SDS011;66719;51.226;6.902;2024-01-10T06:04:37;28.00;;;8.97;;
4835;SDS011;66719;51.226;6.902;2024-01-10T06:07:03;21.57;;;9.60;;
4835;SDS011;66719;51.226;6.902;2024-01-10T06:09:30;19.80;;;8.53;;
4835;SDS011;66719;51.226;6.902;2024-01-10T06:11:56;21.33;;;8.83;;
4835;SDS011;66719;51.226;6.902;2024-01-10T06:14:23;23.10;;;9.13;;
4835;SDS011;66719;51.226;6.902;2024-01-10T06:16:49;24.13;;;9.73;;
4835;SDS011;66719;51.226;6.902;2024-01-10T06:19:19;20.00;;;8.97;;
4835;SDS011;66719;51.226;6.902;2024-01-10T06:21:46;24.90;;;10.10;;
4835;SDS011;66719;51.226;6.902;2024-01-10T06:24:12;21.63;;;10.33;;
4835;SDS011;66719;51.226;6.902;2024-01-10T06:26:39;31.40;;;10.63;;
4835;SDS011;66719;51.226;6.902;2024-01-10T06:29:05;24.67;;;9.37;;
4835;SDS011;66719;51.226;6.902;2024-01-10T06:31:32;23.50;;;9.67;;
4835;SDS011;66719;51.226;6.902;2024-01-10T06:33:59;23.63;;;9.47;;
4835;SDS011;66719;51.226;6.902;2024-01-10T06:36:25;29.80;;;10.30;;
4835;SDS011;66719;51.226;6.902;2024-01-10T06:38:52;25.07;;;11.50;;
4835;SDS011;66719;51.226;6.902;2024-01-10T06:41:20;23.93;;;10.20;;
4835;SDS011;66719;51.226;6.902;2024-01-10T06:43:51;26.20;;;9.90;;
4835;SDS011;66719;51.226;6.902;2024-01-10T06:46:18;27.10;;;11.20;;
4835;SDS011;66719;51.226;6.902;2024-01-10T06:48:44;25.30;;;9.30;;
4835;SDS011;66719;51.226;6.902;2024-01-10T06:51:14;29.93;;;9.93;;
4835;SDS011;66719;51.226;6.902;2024-01-10T06:53:42;21.90;;;10.03;;
4835;SDS011;66719;51.226;6.902;2024-01-10T06:56:09;24.20;;;10.10;;
4835;SDS011;66719;51.226;6.902;2024-01-10T06:58:36;27.70;;;11.53;;
4835;SDS011;66719;51.226;6.902;2024-01-10T07:01:04;24.73;;;9.47;;
4835;SDS011;66719;51.226;6.902;2024-01-10T07:03:31;21.03;;;9.23;;
4835;SDS011;66719;51.226;6.902;2024-01-10T07:05:58;21.90;;;9.20;;
4835;SDS011;66719;51.226;6.902;2024-01-10T07:08:25;23.43;;;8.90;;
4835;SDS011;66719;51.226;6.902;2024-01-10T07:10:52;24.13;;;9.80;;
4835;SDS011;66719;51.226;6.902;2024-01-10T07:13:22;20.70;;;8.77;;
4835;SDS011;66719;51.226;6.902;2024-01-10T07:15:49;24.50;;;9.63;;
4835;SDS011;66719;51.226;6.902;2024-01-10T07:18:18;22.47;;;8.93;;
4835;SDS011;66719;51.226;6.902;2024-01-10T07:20:45;22.70;;;10.63;;
4835;SDS011;66719;51.226;6.902;2024-01-10T07:23:12;23.20;;;9.00;;
4835;SDS011;66719;51.226;6.902;2024-01-10T07:25:38;24.10;;;11.10;;
4835;SDS011;66719;51.226;6.902;2024-01-10T07:28:05;26.00;;;10.23;;
4835;SDS011;66719;51.226;6.902;2024-01-10T07:30:31;26.40;;;10.70;;
4835;SDS011;66719;51.226;6.902;2024-01-10T07:32:59;21.33;;;9.37;;
4835;SDS011;66719;51.226;6.902;2024-01-10T07:35:26;23.17;;;11.17;;
4835;SDS011;66719;51.226;6.902;2024-01-10T07:37:54;27.30;;;11.10;;
4835;SDS011;66719;51.226;6.902;2024-01-10T07:40:20;22.50;;;9.67;;
4835;SDS011;66719;51.226;6.902;2024-01-10T07:42:48;24.20;;;11.33;;
4835;SDS011;66719;51.226;6.902;2024-01-10T07:45:15;24.70;;;10.33;;
4835;SDS011;66719;51.226;6.902;2024-01-10T07:47:41;24.37;;;10.30;;
4835;SDS011;66719;51.226;6.902;2024-01-10T07:50:08;25.80;;;10.90;;
4835;SDS011;66719;51.226;6.902;2024-01-10T07:52:36;29.23;;;10.90;;
4835;SDS011;66719;51.226;6.902;2024-01-10T07:55:03;28.80;;;11.53;;
4835;SDS011;66719;51.226;6.902;2024-01-10T07:57:31;24.90;;;10.40;;
4835;SDS011;66719;51.226;6.902;2024-01-10T07:59:58;25.50;;;10.90;;
4835;SDS011;66719;51.226;6.902;2024-01-10T08:02:25;25.23;;;10.50;;
4835;SDS011;66719;51.226;6.902;2024-01-10T08:04:52;29.40;;;11.60;;
4835;SDS011;66719;51.226;6.902;2024-01-10T08:07:19;25.97;;;11.40;;
4835;SDS011;66719;51.226;6.902;2024-01-10T08:09:46;24.30;;;9.83;;
4835;SDS011;66719;51.226;6.902;2024-01-10T08:12:13;28.33;;;12.30;;
4835;SDS011;66719;51.226;6.902;2024-01-10T08:14:40;27.70;;;10.80;;
4835;SDS011;66719;51.226;6.902;2024-01-10T08:17:06;24.80;;;11.17;;
4835;SDS011;66719;51.226;6.902;2024-01-10T08:19:33;30.20;;;12.03;;
4835;SDS011;66719;51.226;6.902;2024-01-10T08:22:00;27.27;;;12.70;;
4835;SDS011;66719;51.226;6.902;2024-01-10T08:24:26;26.87;;;11.70;;
4835;SDS011;66719;51.226;6.902;2024-01-10T08:26:53;23.00;;;10.50;;
4835;SDS011;66719;51.226;6.902;2024-01-10T08:29:20;22.53;;;9.93;;
4835;SDS011;66719;51.226;6.902;2024-01-10T08:31:47;29.87;;;11.67;;
4835;SDS011;66719;51.226;6.902;2024-01-10T08:34:14;34.00;;;11.90;;
4835;SDS011;66719;51.226;6.902;2024-01-10T08:36:41;29.10;;;11.80;;
4835;SDS011;66719;51.226;6.902;2024-01-10T08:39:07;27.17;;;11.40;;
4835;SDS011;66719;51.226;6.902;2024-01-10T08:41:34;25.13;;;11.63;;
4835;SDS011;66719;51.226;6.902;2024-01-10T08:44:03;27.93;;;13.83;;
4835;SDS011;66719;51.226;6.902;2024-01-10T08:46:29;29.50;;;12.77;;
4835;SDS011;66719;51.226;6.902;2024-01-10T08:48:56;28.43;;;14.00;;
4835;SDS011;66719;51.226;6.902;2024-01-10T08:51:23;25.47;;;12.30;;
4835;SDS011;66719;51.226;6.902;2024-01-10T08:53:49;26.07;;;10.87;;
4835;SDS011;66719;51.226;6.902;2024-01-10T08:56:16;33.63;;;11.90;;
4835;SDS011;66719;51.226;6.902;2024-01-10T08:58:43;29.27;;;13.40;;
4835;SDS011;66719;51.226;6.902;2024-01-10T09:01:09;30.17;;;12.83;;
4835;SDS011;66719;51.226;6.902;2024-01-10T09:03:37;29.27;;;11.47;;
4835;SDS011;66719;51.226;6.902;2024-01-10T09:06:06;28.23;;;11.10;;
4835;SDS011;66719;51.226;6.902;2024-01-10T09:08:37;28.13;;;11.40;;
4835;SDS011;66719;51.226;6.902;2024-01-10T09:11:05;27.80;;;12.17;;
4835;SDS011;66719;51.226;6.902;2024-01-10T09:13:32;28.47;;;10.17;;
4835;SDS011;66719;51.226;6.902;2024-01-10T09:16:00;27.73;;;10.90;;
4835;SDS011;66719;51.226;6.902;2024-01-10T09:18:26;27.40;;;10.90;;
4835;SDS011;66719;51.226;6.902;2024-01-10T09:20:54;28.63;;;11.63;;
4835;SDS011;66719;51.226;6.902;2024-01-10T09:23:22;29.30;;;11.30;;
4835;SDS011;66719;51.226;6.902;2024-01-10T09:25:49;27.93;;;12.20;;
4835;SDS011;66719;51.226;6.902;2024-01-10T09:28:15;29.70;;;10.90;;
4835;SDS011;66719;51.226;6.902;2024-01-10T09:30:42;32.57;;;12.53;;
4835;SDS011;66719;51.226;6.902;2024-01-10T09:33:08;32.87;;;12.47;;
4835;SDS011;66719;51.226;6.902;2024-01-10T09:35:35;36.53;;;13.57;;
4835;SDS011;66719;51.226;6.902;2024-01-10T09:38:02;29.13;;;13.30;;
4835;SDS011;66719;51.226;6.902;2024-01-10T09:40:29;26.23;;;11.47;;
4835;SDS011;66719;51.226;6.902;2024-01-10T09:42:56;29.40;;;13.13;;
4835;SDS011;66719;51.226;6.902;2024-01-10T09:45:23;28.20;;;11.70;;
4835;SDS011;66719;51.226;6.902;2024-01-10T09:47:53;25.30;;;11.40;;
4835;SDS011;66719;51.226;6.902;2024-01-10T09:50:23;26.57;;;11.00;;
4835;SDS011;66719;51.226;6.902;2024-01-10T09:52:52;27.33;;;10.20;;
4835;SDS011;66719;51.226;6.902;2024-01-10T09:55:22;30.17;;;11.30;;
4835;SDS011;66719;51.226;6.902;2024-01-10T09:57:51;28.33;;;11.10;;
4835;SDS011;66719;51.226;6.902;2024-01-10T10:00:18;25.80;;;10.10;;
4835;SDS011;66719;51.226;6.902;2024-01-10T10:02:45;27.83;;;11.80;;
4835;SDS011;66719;51.226;6.902;2024-01-10T10:05:14;30.00;;;12.10;;
4835;SDS011;66719;51.226;6.902;2024-01-10T10:07:49;23.27;;;11.03;;
4835;SDS011;66719;51.226;6.902;2024-01-10T10:10:17;32.03;;;12.63;;
4835;SDS011;66719;51.226;6.902;2024-01-10T10:12:45;24.47;;;10.70;;
4835;SDS011;66719;51.226;6.902;2024-01-10T10:15:16;23.53;;;10.20;;
4835;SDS011;66719;51.226;6.902;2024-01-10T10:17:45;24.17;;;10.53;;
4835;SDS011;66719;51.226;6.902;2024-01-10T10:20:13;26.53;;;11.00;;
4835;SDS011;66719;51.226;6.902;2024-01-10T10:25:31;27.70;;;10.53;;
4835;SDS011;66719;51.226;6.902;2024-01-10T10:27:58;26.20;;;11.20;;
4835;SDS011;66719;51.226;6.902;2024-01-10T10:30:26;27.97;;;12.87;;
4835;SDS011;66719;51.226;6.902;2024-01-10T10:32:54;24.80;;;10.40;;
4835;SDS011;66719;51.226;6.902;2024-01-10T10:35:21;31.20;;;11.43;;
4835;SDS011;66719;51.226;6.902;2024-01-10T10:38:02;29.37;;;10.33;;
4835;SDS011;66719;51.226;6.902;2024-01-10T10:40:29;27.27;;;10.20;;
4835;SDS011;66719;51.226;6.902;2024-01-10T10:42:56;28.60;;;11.10;;
4835;SDS011;66719;51.226;6.902;2024-01-10T10:45:23;25.33;;;10.50;;
4835;SDS011;66719;51.226;6.902;2024-01-10T10:47:56;27.10;;;11.00;;
4835;SDS011;66719;51.226;6.902;2024-01-10T10:50:26;29.83;;;11.30;;
4835;SDS011;66719;51.226;6.902;2024-01-10T10:52:54;27.73;;;11.83;;
4835;SDS011;66719;51.226;6.902;2024-01-10T10:55:24;27.63;;;11.37;;
4835;SDS011;66719;51.226;6.902;2024-01-10T10:57:53;26.70;;;11.50;;
4835;SDS011;66719;51.226;6.902;2024-01-10T11:00:33;26.10;;;10.97;;
4835;SDS011;66719;51.226;6.902;2024-01-10T11:03:01;28.90;;;11.27;;
4835;SDS011;66719;51.226;6.902;2024-01-10T11:05:31;26.07;;;10.97;;
4835;SDS011;66719;51.226;6.902;2024-01-10T11:08:01;28.27;;;12.20;;
4835;SDS011;66719;51.226;6.902;2024-01-10T11:10:32;23.63;;;10.43;;
4835;SDS011;66719;51.226;6.902;2024-01-10T11:24:46;28.50;;;11.50;;
4835;SDS011;66719;51.226;6.902;2024-01-10T11:27:13;27.13;;;10.67;;
4835;SDS011;66719;51.226;6.902;2024-01-10T11:29:41;27.03;;;10.80;;
4835;SDS011;66719;51.226;6.902;2024-01-10T11:32:15;23.60;;;10.50;;
4835;SDS011;66719;51.226;6.902;2024-01-10T11:34:58;26.23;;;10.10;;
4835;SDS011;66719;51.226;6.902;2024-01-10T11:37:39;23.63;;;10.17;;
4835;SDS011;66719;51.226;6.902;2024-01-10T11:40:09;21.70;;;9.30;;
4835;SDS011;66719;51.226;6.902;2024-01-10T11:42:42;25.20;;;10.47;;
4835;SDS011;66719;51.226;6.902;2024-01-10T11:45:10;23.47;;;9.37;;
4835;SDS011;66719;51.226;6.902;2024-01-10T11:48:02;23.47;;;10.00;;
4835;SDS011;66719;51.226;6.902;2024-01-10T11:50:29;20.83;;;9.77;;
4835;SDS011;66719;51.226;6.902;2024-01-10T11:52:57;21.00;;;9.40;;
4835;SDS011;66719;51.226;6.902;2024-01-10T11:58:13;21.07;;;9.27;;
4835;SDS011;66719;51.226;6.902;2024-01-10T12:00:40;24.30;;;9.93;;
4835;SDS011;66719;51.226;6.902;2024-01-10T12:03:07;21.73;;;9.47;;
4835;SDS011;66719;51.226;6.902;2024-01-10T12:05:34;23.83;;;9.67;;
4835;SDS011;66719;51.226;6.902;2024-01-10T12:08:05;21.80;;;9.23;;
4835;SDS011;66719;51.226;6.902;2024-01-10T12:10:33;26.70;;;9.40;;
4835;SDS011;66719;51.226;6.902;2024-01-10T12:13:05;20.73;;;9.00;;
4835;SDS011;66719;51.226;6.902;2024-01-10T12:15:32;18.97;;;8.20;;
4835;SDS011;66719;51.226;6.902;2024-01-10T12:17:58;21.07;;;8.43;;
4835;SDS011;66719;51.226;6.902;2024-01-10T12:20:26;21.33;;;8.73;;
4835;SDS011;66719;51.226;6.902;2024-01-10T12:22:53;20.60;;;8.43;;
4835;SDS011;66719;51.226;6.902;2024-01-10T12:25:20;23.30;;;9.57;;
4835;SDS011;66719;51.226;6.902;2024-01-10T12:27:46;21.10;;;8.50;;
4835;SDS011;66719;51.226;6.902;2024-01-10T12:30:13;21.83;;;8.30;;
4835;SDS011;66719;51.226;6.902;2024-01-10T12:32:42;21.93;;;8.53;;
4835;SDS011;66719;51.226;6.902;2024-01-10T12:35:08;24.30;;;8.40;;
4835;SDS011;66719;51.226;6.902;2024-01-10T12:37:35;18.83;;;8.13;;
4835;SDS011;66719;51.226;6.902;2024-01-10T12:40:02;26.00;;;10.70;;
4835;SDS011;66719;51.226;6.902;2024-01-10T12:42:35;18.70;;;8.93;;
4835;SDS011;66719;51.226;6.902;2024-01-10T12:45:02;18.73;;;8.20;;
4835;SDS011;66719;51.226;6.902;2024-01-10T12:47:30;20.67;;;8.67;;
4835;SDS011;66719;51.226;6.902;2024-01-10T12:49:57;24.73;;;8.50;;
4835;SDS011;66719;51.226;6.902;2024-01-10T12:52:23;23.13;;;9.40;;
4835;SDS011;66719;51.226;6.902;2024-01-10T12:54:51;20.67;;;8.70;;
4835;SDS011;66719;51.226;6.902;2024-01-10T12:57:19;20.43;;;8.67;;
4835;SDS011;66719;51.226;6.902;2024-01-10T12:59:45;23.60;;;9.47;;
4835;SDS011;66719;51.226;6.902;2024-01-10T13:02:12;19.80;;;8.97;;
4835;SDS011;66719;51.226;6.902;2024-01-10T13:04:39;21.87;;;9.30;;
4835;SDS011;66719;51.226;6.902;2024-01-10T13:07:06;20.20;;;8.40;;
4835;SDS011;66719;51.226;6.902;2024-01-10T13:09:32;19.93;;;8.57;;
4835;SDS011;66719;51.226;6.902;2024-01-10T13:12:01;23.50;;;8.67;;
4835;SDS011;66719;51.226;6.902;2024-01-10T13:14:27;25.27;;;9.83;;
4835;SDS011;66719;51.226;6.902;2024-01-10T13:16:56;21.13;;;8.70;;
4835;SDS011;66719;51.226;6.902;2024-01-10T13:19:25;26.20;;;9.60;;
4835;SDS011;66719;51.226;6.902;2024-01-10T13:21:53;18.70;;;8.60;;
4835;SDS011;66719;51.226;6.902;2024-01-10T13:24:19;21.97;;;7.70;;
4835;SDS011;66719;51.226;6.902;2024-01-10T13:26:46;22.97;;;9.87;;
4835;SDS011;66719;51.226;6.902;2024-01-10T13:29:14;23.83;;;8.77;;
4835;SDS011;66719;51.226;6.902;2024-01-10T13:31:41;22.47;;;8.90;;
4835;SDS011;66719;51.226;6.902;2024-01-10T13:34:08;20.10;;;9.37;;
4835;SDS011;66719;51.226;6.902;2024-01-10T13:36:35;20.50;;;9.10;;
4835;SDS011;66719;51.226;6.902;2024-01-10T13:39:02;21.10;;;8.03;;
4835;SDS011;66719;51.226;6.902;2024-01-10T13:41:30;19.77;;;8.63;;
4835;SDS011;66719;51.226;6.902;2024-01-10T13:43:56;21.90;;;8.97;;
4835;SDS011;66719;51.226;6.902;2024-01-10T13:46:23;20.17;;;7.97;;
4835;SDS011;66719;51.226;6.902;2024-01-10T13:48:49;24.23;;;8.47;;
4835;SDS011;66719;51.226;6.902;2024-01-10T13:51:16;21.60;;;8.97;;
4835;SDS011;66719;51.226;6.902;2024-01-10T13:53:43;27.93;;;9.90;;
4835;SDS011;66719;51.226;6.902;2024-01-10T13:56:09;28.30;;;9.70;;
4835;SDS011;66719;51.226;6.902;2024-01-10T13:58:38;25.47;;;11.40;;
4835;SDS011;66719;51.226;6.902;2024-01-10T14:01:04;26.33;;;9.93;;
4835;SDS011;66719;51.226;6.902;2024-01-10T14:03:31;40.53;;;10.50;;
4835;SDS011;66719;51.226;6.902;2024-01-10T14:05:59;26.47;;;10.70;;
4835;SDS011;66719;51.226;6.902;2024-01-10T14:08:27;26.63;;;10.30;;
4835;SDS011;66719;51.226;6.902;2024-01-10T14:10:53;24.17;;;10.10;;
4835;SDS011;66719;51.226;6.902;2024-01-10T14:13:20;29.53;;;12.30;;
4835;SDS011;66719;51.226;6.902;2024-01-10T14:15:46;37.47;;;12.73;;
4835;SDS011;66719;51.226;6.902;2024-01-10T14:18:13;30.07;;;14.10;;
4835;SDS011;66719;51.226;6.902;2024-01-10T14:20:39;35.10;;;14.57;;
4835;SDS011;66719;51.226;6.902;2024-01-10T14:23:08;27.97;;;13.33;;
4835;SDS011;66719;51.226;6.902;2024-01-10T14:25:34;28.30;;;13.03;;
4835;SDS011;66719;51.226;6.902;2024-01-10T14:28:01;31.23;;;13.90;;
4835;SDS011;66719;51.226;6.902;2024-01-10T14:30:29;31.60;;;14.27;;
4835;SDS011;66719;51.226;6.902;2024-01-10T14:32:56;40.70;;;15.07;;
4835;SDS011;66719;51.226;6.902;2024-01-10T14:35:22;31.80;;;14.33;;
4835;SDS011;66719;51.226;6.902;2024-01-10T14:37:50;37.83;;;16.30;;
4835;SDS011;66719;51.226;6.902;2024-01-10T14:40:17;36.93;;;15.67;;
4835;SDS011;66719;51.226;6.902;2024-01-10T14:42:43;32.17;;;15.23;;
4835;SDS011;66719;51.226;6.902;2024-01-10T14:45:11;32.40;;;15.50;;
4835;SDS011;66719;51.226;6.902;2024-01-10T14:47:38;34.30;;;15.33;;
4835;SDS011;66719;51.226;6.902;2024-01-10T14:50:05;30.63;;;15.07;;
4835;SDS011;66719;51.226;6.902;2024-01-10T14:52:32;37.83;;;16.13;;
4835;SDS011;66719;51.226;6.902;2024-01-10T14:54:59;35.77;;;16.37;;
4835;SDS011;66719;51.226;6.902;2024-01-10T14:57:25;43.30;;;17.50;;
4835;SDS011;66719;51.226;6.902;2024-01-10T14:59:52;43.63;;;17.40;;
4835;SDS011;66719;51.226;6.902;2024-01-10T15:02:18;37.87;;;17.47;;